Time;durP1;ratioP1;P1;durP2;ratioP2;P2;SDS_P1;SDS_P2;PMS_P1;PMS_P2;Temp;Humidity;BMP_temperature;BMP_pressure;BME280_temperature;BME280_humidity;BME280_pressure;Samples;Min_cycle;Max_cycle;Signal;HPM_P1;HPM_P2
2020/12/26 00:01:11;;;;;;;3.08;1.05;;;0.80;99.90;;;;;;4922851;28;20177;-81
2020/12/26 00:03:34;;;;;;;4.93;1.13;;;0.80;99.90;;;;;;4907035;28;20091;-80
2020/12/26 00:05:57;;;;;;;5.78;1.23;;;0.80;99.90;;;;;;4923642;28;20140;-82
2020/12/26 00:08:20;;;;;;;4.47;1.15;;;0.70;99.90;;;;;;4913069;28;20636;-80
2020/12/26 00:10:42;;;;;;;2.65;0.93;;;0.60;99.90;;;;;;4901027;28;20150;-81
2020/12/26 00:13:05;;;;;;;5.80;1.33;;;0.60;99.90;;;;;;4925067;28;20091;-81
2020/12/26 00:15:28;;;;;;;10.85;0.80;;;0.50;99.90;;;;;;4903632;28;20532;-81
2020/12/26 00:17:53;;;;;;;3.45;0.93;;;;;;;;;;4904847;28;20090;-80
2020/12/26 00:20:19;;;;;;;11.10;1.10;;;0.40;99.90;;;;;;4899861;28;20236;-81
2020/12/26 00:22:41;;;;;;;2.30;1.40;;;0.40;99.90;;;;;;4921205;28;20111;-81
2020/12/26 00:25:05;;;;;;;4.60;1.27;;;0.40;99.90;;;;;;4906298;28;20511;-82
2020/12/26 00:27:29;;;;;;;3.25;1.23;;;0.30;99.90;;;;;;4898790;28;20191;-81
2020/12/26 00:29:52;;;;;;;2.65;1.27;;;0.30;99.90;;;;;;4907990;28;20081;-81
2020/12/26 00:32:14;;;;;;;4.53;1.20;;;0.20;99.90;;;;;;4899664;28;20258;-80
2020/12/26 00:34:41;;;;;;;2.38;1.20;;;0.20;99.90;;;;;;4904587;28;20088;-81
2020/12/26 00:37:03;;;;;;;7.28;1.25;;;0.10;99.90;;;;;;4901282;28;20089;-81
2020/12/26 00:39:26;;;;;;;6.57;1.08;;;0.10;99.90;;;;;;4891454;28;20175;-81
2020/12/26 00:41:49;;;;;;;8.90;1.40;;;0.20;99.90;;;;;;4899940;28;20105;-81
2020/12/26 00:44:12;;;;;;;11.45;1.58;;;0.20;99.90;;;;;;4899409;28;20110;-81
2020/12/26 00:46:35;;;;;;;7.00;1.75;;;0.10;99.90;;;;;;4921479;28;20115;-81
2020/12/26 00:48:58;;;;;;;9.52;1.65;;;0.10;99.90;;;;;;4900190;28;20126;-80
2020/12/26 00:51:22;;;;;;;16.33;1.38;;;0.10;99.90;;;;;;4901576;28;20111;-80
2020/12/26 00:53:44;;;;;;;4.70;1.60;;;0.10;99.90;;;;;;4908121;28;20233;-81
2020/12/26 00:56:08;;;;;;;4.90;1.15;;;0.10;99.90;;;;;;4919587;28;20079;-80
2020/12/26 00:58:32;;;;;;;7.55;1.73;;;0.10;99.90;;;;;;4901732;28;20476;-82
2020/12/26 01:00:55;;;;;;;6.68;1.55;;;;;;;;;;4921309;28;20236;-80
2020/12/26 01:03:19;;;;;;;11.20;1.52;;;0.20;99.90;;;;;;4899034;28;21165;-81
2020/12/26 01:05:43;;;;;;;10.45;1.60;;;0.20;99.90;;;;;;4902839;28;20098;-80
2020/12/26 01:08:07;;;;;;;6.25;1.42;;;;;;;;;;4924450;28;20090;-80
2020/12/26 01:10:30;;;;;;;2.88;1.17;;;0.20;99.90;;;;;;4906634;28;20489;-80
2020/12/26 01:12:52;;;;;;;2.05;1.05;;;0.20;99.90;;;;;;4920846;28;20177;-81
2020/12/26 01:15:15;;;;;;;2.58;1.40;;;0.20;99.90;;;;;;4899909;28;20493;-81
2020/12/26 01:17:39;;;;;;;1.40;0.90;;;0.20;99.90;;;;;;4913757;28;20172;-80
2020/12/26 01:20:02;;;;;;;4.78;1.20;;;0.10;99.90;;;;;;4899934;28;20091;-81
2020/12/26 01:22:25;;;;;;;8.15;1.50;;;0.10;99.90;;;;;;4902789;28;20182;-81
2020/12/26 01:24:49;;;;;;;5.30;1.10;;;0.10;99.90;;;;;;4900223;28;20491;-80
2020/12/26 01:27:12;;;;;;;3.75;1.10;;;0.10;99.90;;;;;;4899558;28;20103;-81
2020/12/26 01:29:35;;;;;;;10.00;1.55;;;0.10;99.90;;;;;;4895313;28;20225;-80
2020/12/26 01:32:00;;;;;;;11.05;1.90;;;0.10;99.90;;;;;;4898657;28;20191;-81
2020/12/26 01:34:23;;;;;;;14.85;1.88;;;0.10;99.90;;;;;;4917837;28;20170;-81
2020/12/26 01:36:50;;;;;;;7.47;1.80;;;0.10;99.90;;;;;;4888734;28;20106;-80
2020/12/26 01:39:12;;;;;;;6.65;1.58;;;0.10;99.90;;;;;;4918311;28;20456;-82
2020/12/26 01:41:37;;;;;;;10.43;2.00;;;0.00;99.90;;;;;;4910950;28;20146;-80
2020/12/26 01:44:01;;;;;;;4.45;1.77;;;0.00;99.90;;;;;;4897848;28;20117;-81
2020/12/26 01:46:28;;;;;;;3.95;1.67;;;0.00;99.90;;;;;;4910764;28;20097;-80
2020/12/26 01:48:51;;;;;;;4.45;1.38;;;-0.10;99.90;;;;;;4870876;28;20656;-80
2020/12/26 01:51:16;;;;;;;7.45;1.65;;;-0.10;99.90;;;;;;4897556;28;20093;-81
2020/12/26 01:53:39;;;;;;;4.47;1.38;;;-0.10;99.90;;;;;;4901955;28;20187;-81
2020/12/26 01:56:02;;;;;;;2.78;1.50;;;-0.20;99.90;;;;;;4895096;28;20626;-81
2020/12/26 01:58:27;;;;;;;5.55;2.08;;;-0.20;99.90;;;;;;4900670;28;20184;-80
2020/12/26 02:00:51;;;;;;;4.13;2.22;;;-0.20;99.90;;;;;;4906038;28;20178;-81
2020/12/26 02:03:14;;;;;;;8.38;1.85;;;-0.10;99.90;;;;;;4913971;28;20184;-81
2020/12/26 02:05:38;;;;;;;9.65;1.95;;;-0.20;99.90;;;;;;4906755;28;20119;-81
2020/12/26 02:08:02;;;;;;;3.33;1.80;;;-0.30;99.90;;;;;;4892729;28;20105;-81
2020/12/26 02:10:26;;;;;;;4.63;2.17;;;-0.30;99.90;;;;;;4900143;28;20087;-81
2020/12/26 02:12:49;;;;;;;7.03;1.70;;;-0.40;99.90;;;;;;4897067;28;20103;-81
2020/12/26 02:15:15;;;;;;;5.63;2.10;;;-0.40;99.90;;;;;;4906198;28;20178;-81
2020/12/26 02:17:39;;;;;;;7.50;2.28;;;-0.50;99.90;;;;;;4900863;28;20149;-81
2020/12/26 02:20:02;;;;;;;5.00;1.88;;;-0.50;99.90;;;;;;4919670;28;20099;-81
2020/12/26 02:22:25;;;;;;;8.35;1.75;;;-0.50;99.90;;;;;;4894627;28;20095;-81
2020/12/26 02:24:49;;;;;;;8.30;2.20;;;;;;;;;;4896760;28;20172;-82
2020/12/26 02:27:12;;;;;;;7.38;2.30;;;-0.60;99.90;;;;;;4891577;28;20104;-81
2020/12/26 02:29:35;;;;;;;7.65;2.08;;;-0.60;99.90;;;;;;4900683;28;20169;-81
2020/12/26 02:31:58;;;;;;;7.80;1.85;;;-0.70;99.90;;;;;;4898937;28;20998;-81
2020/12/26 02:34:21;;;;;;;9.15;2.17;;;-0.70;99.90;;;;;;4900633;28;20096;-80
2020/12/26 02:36:44;;;;;;;7.85;2.17;;;-0.80;99.90;;;;;;4895780;28;20116;-80
2020/12/26 02:39:08;;;;;;;8.50;1.77;;;-0.70;99.90;;;;;;4895999;28;20123;-81
2020/12/26 02:41:32;;;;;;;7.38;1.85;;;-0.70;99.90;;;;;;4902845;28;20544;-82
2020/12/26 02:43:55;;;;;;;11.15;1.92;;;-0.80;99.90;;;;;;4891551;28;20110;-82
2020/12/26 02:46:18;;;;;;;9.80;2.13;;;-0.70;99.90;;;;;;4920474;28;20180;-81
2020/12/26 02:48:40;;;;;;;9.23;2.08;;;-0.70;99.90;;;;;;4925855;28;20183;-82
2020/12/26 02:51:09;;;;;;;6.63;2.55;;;-0.70;99.90;;;;;;4892021;28;20091;-81
2020/12/26 02:53:32;;;;;;;7.80;2.00;;;;;;;;;;4917354;28;20104;-82
2020/12/26 02:55:55;;;;;;;6.80;1.73;;;-0.80;99.90;;;;;;4906320;28;20089;-81
2020/12/26 02:58:20;;;;;;;9.00;2.15;;;-0.90;99.90;;;;;;4904164;28;20088;-81
2020/12/26 03:00:43;;;;;;;8.25;1.80;;;-0.90;99.90;;;;;;4900392;28;20204;-81
2020/12/26 03:03:05;;;;;;;3.67;1.30;;;-0.80;99.90;;;;;;4908185;28;20154;-81
2020/12/26 03:05:28;;;;;;;5.38;2.15;;;-0.80;99.90;;;;;;4904707;28;20499;-81
2020/12/26 03:07:52;;;;;;;6.70;2.00;;;-0.70;99.90;;;;;;4900863;28;20083;-81
2020/12/26 03:10:16;;;;;;;4.55;1.85;;;-0.70;99.90;;;;;;4902025;28;20087;-81
2020/12/26 03:12:40;;;;;;;7.40;2.03;;;-0.70;99.90;;;;;;4898953;28;20093;-81
2020/12/26 03:15:04;;;;;;;5.32;2.42;;;-0.70;99.90;;;;;;4885394;28;20152;-82
2020/12/26 03:17:28;;;;;;;9.45;1.90;;;;;;;;;;4902785;28;20106;-81
2020/12/26 03:19:51;;;;;;;6.43;2.30;;;-0.80;99.90;;;;;;4901178;28;21522;-81
2020/12/26 03:22:15;;;;;;;7.57;1.50;;;-0.80;99.90;;;;;;4902497;28;20688;-82
2020/12/26 03:24:37;;;;;;;4.97;1.85;;;-0.80;99.90;;;;;;4911100;28;20524;-82
2020/12/26 03:27:01;;;;;;;7.20;2.78;;;-0.80;99.90;;;;;;4903890;28;20566;-82
2020/12/26 03:29:24;;;;;;;4.90;1.77;;;-0.80;99.90;;;;;;4901496;28;23411;-82
2020/12/26 03:31:48;;;;;;;2.95;1.90;;;;;;;;;;4916056;28;20216;-81
2020/12/26 03:34:11;;;;;;;6.40;1.92;;;-0.70;99.90;;;;;;4923439;28;20429;-81
2020/12/26 03:36:37;;;;;;;10.63;2.00;;;-0.60;99.90;;;;;;4920595;28;20602;-81
2020/12/26 03:38:59;;;;;;;5.30;1.70;;;-0.60;99.90;;;;;;4905586;28;20169;-81
2020/12/26 03:41:23;;;;;;;6.18;1.70;;;-0.50;99.90;;;;;;4899635;28;20289;-81
2020/12/26 03:43:46;;;;;;;7.65;2.20;;;-0.50;99.90;;;;;;4903211;28;20093;-82
2020/12/26 03:46:08;;;;;;;5.80;2.10;;;-0.50;99.90;;;;;;4916370;28;20121;-82
2020/12/26 03:48:32;;;;;;;2.95;1.67;;;;;;;;;;4914651;28;20177;-81
2020/12/26 03:50:55;;;;;;;6.40;2.35;;;-0.50;99.90;;;;;;4911820;28;20094;-82
2020/12/26 03:53:18;;;;;;;5.35;2.03;;;-0.50;99.90;;;;;;4905158;28;20204;-81
2020/12/26 03:55:41;;;;;;;9.15;1.73;;;-0.50;99.90;;;;;;4910279;28;20178;-81
2020/12/26 03:58:05;;;;;;;7.00;1.75;;;-0.50;99.90;;;;;;4899379;28;20097;-82
2020/12/26 04:00:28;;;;;;;5.13;1.85;;;;;;;;;;4895062;28;20096;-80
2020/12/26 04:02:51;;;;;;;7.88;1.77;;;-0.50;99.90;;;;;;4912561;28;20093;-81
2020/12/26 04:05:15;;;;;;;11.38;1.70;;;-0.50;99.90;;;;;;4904810;28;20087;-80
2020/12/26 04:07:38;;;;;;;3.75;2.05;;;-0.50;99.90;;;;;;4904836;28;20095;-81
2020/12/26 04:10:01;;;;;;;4.68;2.28;;;-0.50;99.90;;;;;;4900799;28;20100;-81
2020/12/26 04:12:24;;;;;;;8.18;2.13;;;-0.60;99.90;;;;;;4902183;28;20539;-81
2020/12/26 04:14:47;;;;;;;3.42;1.85;;;-0.50;99.90;;;;;;4902532;28;20126;-82
2020/12/26 04:17:09;;;;;;;7.55;2.25;;;-0.50;99.90;;;;;;4919651;28;20171;-81
2020/12/26 04:19:32;;;;;;;7.07;1.92;;;-0.50;99.90;;;;;;4916329;28;20178;-82
2020/12/26 04:21:56;;;;;;;3.95;2.15;;;-0.60;99.90;;;;;;4916691;28;20104;-81
2020/12/26 04:24:19;;;;;;;7.93;2.22;;;-0.60;99.90;;;;;;4913504;28;20435;-82
2020/12/26 04:26:43;;;;;;;8.48;1.85;;;-0.60;99.90;;;;;;4917362;28;20101;-82
2020/12/26 04:29:06;;;;;;;12.18;2.38;;;-0.60;99.90;;;;;;4920523;28;20102;-82
2020/12/26 04:31:29;;;;;;;7.85;2.28;;;-0.70;99.90;;;;;;4901489;28;20187;-81
2020/12/26 04:33:52;;;;;;;7.65;1.92;;;-0.60;99.90;;;;;;4903472;28;20183;-81
2020/12/26 04:36:15;;;;;;;17.08;2.42;;;-0.70;99.90;;;;;;4901637;28;20133;-82
2020/12/26 04:38:39;;;;;;;5.18;1.88;;;-0.70;99.90;;;;;;4898946;28;20170;-81
2020/12/26 04:41:04;;;;;;;9.73;2.67;;;-0.80;99.90;;;;;;4900961;28;20136;-80
2020/12/26 04:43:27;;;;;;;7.63;2.28;;;-0.90;99.90;;;;;;4904602;28;20126;-80
2020/12/26 04:45:54;;;;;;;8.27;2.45;;;-0.90;99.90;;;;;;4922419;28;20167;-80
2020/12/26 04:48:17;;;;;;;7.57;2.25;;;-0.90;99.90;;;;;;4919646;28;20102;-80
2020/12/26 04:50:47;;;;;;;9.55;2.38;;;-0.90;99.90;;;;;;4897338;28;20166;-80
2020/12/26 04:53:14;;;;;;;10.18;2.40;;;-0.90;99.90;;;;;;4916488;28;20170;-80
2020/12/26 04:55:41;;;;;;;7.40;2.08;;;-0.90;99.90;;;;;;4898868;28;20097;-80
2020/12/26 04:58:06;;;;;;;4.60;1.83;;;-0.90;99.90;;;;;;4913633;28;20853;-81
2020/12/26 05:00:32;;;;;;;6.72;1.92;;;-0.70;99.90;;;;;;4920609;28;20195;-81
2020/12/26 05:02:58;;;;;;;4.05;2.00;;;-0.60;99.90;;;;;;4910506;28;20097;-81
2020/12/26 05:05:23;;;;;;;7.22;2.25;;;-0.50;99.90;;;;;;4897895;28;20096;-81
2020/12/26 05:07:46;;;;;;;9.82;2.17;;;-0.40;99.90;;;;;;4898902;28;20138;-80
2020/12/26 05:10:09;;;;;;;3.78;1.90;;;;;;;;;;4898898;28;20112;-80
2020/12/26 05:12:33;;;;;;;6.00;2.05;;;;;;;;;;4900615;28;20603;-81
2020/12/26 05:15:01;;;;;;;7.70;2.22;;;-0.10;99.90;;;;;;4900129;28;20108;-81
2020/12/26 05:17:24;;;;;;;4.90;1.95;;;-0.10;99.90;;;;;;4895286;28;20138;-80
2020/12/26 05:19:48;;;;;;;5.47;1.92;;;0.00;99.90;;;;;;4899802;28;20097;-80
2020/12/26 05:22:13;;;;;;;9.40;2.85;;;0.10;99.90;;;;;;4903528;28;20459;-81
2020/12/26 05:24:36;;;;;;;;;;;0.10;99.90;;;;;;4898688;28;20109;-81
2020/12/26 05:26:59;;;;;;;5.75;2.30;;;0.10;99.90;;;;;;4897138;28;20019;-81
2020/12/26 05:29:24;;;;;;;5.75;2.95;;;0.20;99.90;;;;;;4905338;28;20091;-80
2020/12/26 05:31:50;;;;;;;11.85;2.97;;;0.10;99.90;;;;;;4914547;28;20445;-80
2020/12/26 05:34:13;;;;;;;13.85;2.72;;;0.20;99.90;;;;;;4923965;28;21190;-81
2020/12/26 05:36:36;;;;;;;7.05;2.55;;;0.20;99.90;;;;;;4917959;28;20208;-80
2020/12/26 05:38:59;;;;;;;13.52;3.92;;;0.00;99.90;;;;;;4903874;28;20100;-80
2020/12/26 05:41:24;;;;;;;29.20;6.07;;;0.10;99.90;;;;;;4921413;28;20438;-81
2020/12/26 05:43:50;;;;;;;16.23;4.05;;;0.00;99.90;;;;;;4916451;28;20111;-81
2020/12/26 05:46:15;;;;;;;7.32;2.20;;;0.00;99.90;;;;;;4915229;28;20095;-80
2020/12/26 05:48:38;;;;;;;16.38;2.33;;;-0.10;99.90;;;;;;4911707;28;20411;-81
2020/12/26 05:51:02;;;;;;;6.32;1.98;;;-0.10;99.90;;;;;;4898229;28;20455;-80
2020/12/26 05:53:26;;;;;;;9.85;2.05;;;-0.20;99.90;;;;;;4920621;28;20091;-80
2020/12/26 05:55:49;;;;;;;3.88;1.92;;;-0.30;99.90;;;;;;4900294;28;20483;-80
2020/12/26 05:58:14;;;;;;;10.70;2.13;;;-0.30;99.90;;;;;;4923602;28;20086;-80
2020/12/26 06:00:38;;;;;;;9.57;3.17;;;-0.40;99.90;;;;;;4896272;28;20172;-81
2020/12/26 06:03:21;;;;;;;12.10;3.33;;;-0.40;99.90;;;;;;4916919;28;20445;-79
2020/12/26 06:05:47;;;;;;;6.38;2.45;;;-0.40;99.90;;;;;;4883264;28;20090;-79
2020/12/26 06:08:12;;;;;;;11.55;2.40;;;-0.50;99.90;;;;;;4893033;28;20618;-80
2020/12/26 06:10:38;;;;;;;4.47;1.63;;;-0.50;99.90;;;;;;4909497;28;20093;-81
2020/12/26 06:13:01;;;;;;;4.88;1.98;;;-0.50;99.90;;;;;;4896679;28;20190;-80
2020/12/26 06:15:28;;;;;;;10.20;2.28;;;-0.50;99.90;;;;;;4920137;28;20175;-80
2020/12/26 06:17:55;;;;;;;6.80;2.03;;;-0.50;99.90;;;;;;4899481;28;20122;-80
2020/12/26 06:20:19;;;;;;;6.70;1.88;;;-0.50;99.90;;;;;;4895570;28;20116;-80
2020/12/26 06:22:44;;;;;;;7.35;2.55;;;-0.60;99.90;;;;;;4904256;28;20096;-80
2020/12/26 06:25:14;;;;;;;6.00;2.17;;;-0.60;99.90;;;;;;4916398;28;20099;-80
2020/12/26 06:27:44;;;;;;;3.70;1.60;;;-0.60;99.90;;;;;;4895999;28;20093;-80
2020/12/26 06:30:09;;;;;;;3.83;1.40;;;-0.60;99.90;;;;;;4915422;28;20089;-79
2020/12/26 06:32:32;;;;;;;3.72;1.50;;;-0.60;99.90;;;;;;4890486;28;20100;-80
2020/12/26 06:34:55;;;;;;;8.18;2.03;;;-0.60;99.90;;;;;;4902222;28;21216;-80
2020/12/26 06:37:20;;;;;;;2.40;1.55;;;;;;;;;;4898107;28;20469;-80
2020/12/26 06:39:43;;;;;;;9.90;1.65;;;-0.60;99.90;;;;;;4903233;28;20101;-79
2020/12/26 06:42:14;;;;;;;16.92;1.80;;;-0.60;99.90;;;;;;4897525;28;20089;-79
2020/12/26 06:44:38;;;;;;;2.47;1.25;;;-0.60;99.90;;;;;;4899040;28;20120;-80
2020/12/26 06:47:02;;;;;;;16.00;2.28;;;-0.60;99.90;;;;;;4920525;28;20092;-79
2020/12/26 06:49:27;;;;;;;7.60;2.97;;;-0.50;99.90;;;;;;4922821;28;20119;-81
2020/12/26 06:51:50;;;;;;;9.27;2.40;;;-0.60;99.90;;;;;;4921155;28;20092;-79
2020/12/26 06:54:15;;;;;;;8.20;2.08;;;;;;;;;;4919761;28;20146;-79
2020/12/26 06:56:48;;;;;;;9.70;1.70;;;-0.60;99.90;;;;;;4907457;28;20098;-79
2020/12/26 06:59:12;;;;;;;2.90;1.40;;;-0.50;99.90;;;;;;4912216;28;20533;-79
2020/12/26 07:01:38;;;;;;;4.43;1.85;;;-0.50;99.90;;;;;;4920780;28;20541;-80
2020/12/26 07:04:16;;;;;;;2.97;1.38;;;-0.60;99.90;;;;;;4921922;28;20507;-79
2020/12/26 07:06:39;;;;;;;3.28;1.70;;;-0.50;99.90;;;;;;4914094;28;20482;-79
2020/12/26 07:09:04;;;;;;;7.05;1.40;;;-0.60;99.90;;;;;;4915360;28;20189;-80
2020/12/26 07:11:28;;;;;;;3.45;1.27;;;-0.60;99.90;;;;;;4914299;28;20444;-79
2020/12/26 07:13:53;;;;;;;4.03;1.45;;;-0.50;99.90;;;;;;4895029;28;20183;-79
2020/12/26 07:16:39;;;;;;;9.45;1.67;;;-0.50;99.90;;;;;;4894060;28;20091;-79
2020/12/26 07:19:31;;;;;;;1.73;1.30;;;-0.50;99.90;;;;;;4919361;28;20103;-78
2020/12/26 07:21:55;;;;;;;11.43;1.77;;;-0.50;99.90;;;;;;4914402;28;20126;-79
2020/12/26 07:24:21;;;;;;;3.55;1.52;;;-0.40;99.90;;;;;;4922055;28;20169;-80
2020/12/26 07:26:45;;;;;;;10.20;1.73;;;-0.40;99.90;;;;;;4919455;28;20546;-80
2020/12/26 07:29:11;;;;;;;2.63;1.58;;;-0.40;99.90;;;;;;4922170;28;20101;-79
2020/12/26 07:31:47;;;;;;;2.97;1.52;;;-0.40;99.90;;;;;;4926887;28;20128;-79
2020/12/26 07:34:33;;;;;;;;;;;-0.40;99.90;;;;;;4916084;28;20544;-79
2020/12/26 07:36:56;;;;;;;2.65;1.17;;;-0.40;99.90;;;;;;4922991;28;23240;-79
2020/12/26 07:39:19;;;;;;;6.25;1.67;;;-0.40;99.90;;;;;;4923839;28;20431;-79
2020/12/26 07:41:41;;;;;;;2.00;1.30;;;-0.40;99.90;;;;;;4904560;28;20093;-79
2020/12/26 07:44:06;;;;;;;4.18;1.63;;;-0.40;99.90;;;;;;4900883;28;20167;-79
2020/12/26 07:46:29;;;;;;;3.78;1.60;;;-0.30;99.90;;;;;;4921727;28;20195;-79
2020/12/26 07:48:55;;;;;;;3.80;1.98;;;-0.40;99.90;;;;;;4904804;28;20143;-79
2020/12/26 07:51:18;;;;;;;4.68;2.22;;;;;;;;;;4921321;28;20448;-79
2020/12/26 07:53:41;;;;;;;7.40;2.15;;;-0.40;99.90;;;;;;4897213;28;20495;-79
2020/12/26 07:56:05;;;;;;;5.93;3.00;;;;;;;;;;4919392;28;20084;-79
2020/12/26 07:58:28;;;;;;;10.73;3.05;;;-0.40;99.90;;;;;;4921793;28;20123;-79
2020/12/26 08:00:52;;;;;;;11.77;2.78;;;-0.40;99.90;;;;;;4921684;28;20104;-79
2020/12/26 08:03:16;;;;;;;8.98;2.53;;;;;;;;;;4903357;28;21215;-80
2020/12/26 08:05:46;;;;;;;6.80;2.25;;;-0.40;99.90;;;;;;4921950;28;20707;-80
2020/12/26 08:08:20;;;;;;;6.85;1.92;;;-0.40;99.90;;;;;;4917712;28;20096;-78
2020/12/26 08:10:44;;;;;;;7.38;2.35;;;-0.40;99.90;;;;;;4919550;28;20138;-79
2020/12/26 08:13:08;;;;;;;9.30;2.33;;;;;;;;;;4921134;28;20093;-79
2020/12/26 08:15:31;;;;;;;8.68;2.85;;;-0.40;99.90;;;;;;4922668;28;20442;-80
2020/12/26 08:17:58;;;;;;;7.05;1.92;;;-0.40;99.90;;;;;;4921364;28;20095;-79
2020/12/26 08:20:22;;;;;;;6.63;2.42;;;;;;;;;;4919842;28;20093;-78
2020/12/26 08:22:46;;;;;;;7.10;2.78;;;-0.40;99.90;;;;;;4923316;28;20753;-79
2020/12/26 08:25:11;;;;;;;8.48;2.80;;;-0.30;99.90;;;;;;4905072;28;20135;-79
2020/12/26 08:27:35;;;;;;;10.32;2.60;;;-0.30;99.90;;;;;;4903482;28;20106;-79
2020/12/26 08:30:02;;;;;;;9.55;2.33;;;-0.40;99.90;;;;;;4901546;28;20181;-80
2020/12/26 08:32:27;;;;;;;6.45;2.10;;;-0.30;99.90;;;;;;4904586;28;20089;-80
2020/12/26 08:34:58;;;;;;;8.93;2.55;;;-0.30;99.90;;;;;;4901854;28;20096;-80
2020/12/26 08:37:27;;;;;;;9.20;3.00;;;-0.30;99.90;;;;;;4921472;28;20214;-79
2020/12/26 08:39:58;;;;;;;9.32;2.88;;;-0.30;99.90;;;;;;4903853;28;20457;-79
2020/12/26 08:42:22;;;;;;;7.65;2.97;;;-0.30;99.90;;;;;;4897693;28;20104;-79
2020/12/26 08:44:45;;;;;;;10.50;2.95;;;-0.30;99.90;;;;;;4901686;28;20090;-79
2020/12/26 08:47:09;;;;;;;12.68;3.40;;;-0.20;99.90;;;;;;4899075;28;20510;-80
2020/12/26 08:49:32;;;;;;;11.20;3.47;;;-0.20;99.90;;;;;;4899683;28;20099;-80
2020/12/26 08:51:56;;;;;;;13.30;3.38;;;-0.10;99.90;;;;;;4923450;28;20097;-80
2020/12/26 08:54:20;;;;;;;9.43;3.25;;;-0.10;99.90;;;;;;4918775;28;20114;-79
2020/12/26 08:56:43;;;;;;;6.45;2.70;;;-0.10;99.90;;;;;;4867767;28;20115;-79
2020/12/26 08:59:06;;;;;;;11.20;2.90;;;0.00;99.90;;;;;;4896202;28;20096;-79
2020/12/26 09:01:53;;;;;;;6.60;2.85;;;0.00;99.90;;;;;;4879962;28;20101;-79
2020/12/26 09:04:44;;;;;;;6.03;2.72;;;0.00;99.90;;;;;;4857186;28;20549;-79
2020/12/26 09:08:00;;;;;;;6.32;2.85;;;0.10;99.90;;;;;;4842128;28;20107;-79
2020/12/26 09:10:50;;;;;;;4.95;2.70;;;0.10;99.90;;;;;;4878192;28;20265;-80
2020/12/26 09:13:47;;;;;;;7.20;3.35;;;0.20;99.90;;;;;;4839743;28;20112;-79
2020/12/26 09:16:45;;;;;;;15.55;3.50;;;0.30;99.90;;;;;;4867638;28;20095;-79
2020/12/26 09:19:33;;;;;;;12.65;2.80;;;0.40;99.90;;;;;;4868205;28;20091;-80
2020/12/26 09:22:16;;;;;;;10.13;2.83;;;0.40;99.90;;;;;;4869586;28;20862;-78
2020/12/26 09:25:23;;;;;;;5.72;2.78;;;0.50;99.90;;;;;;4863360;28;20089;-78
2020/12/26 09:27:46;;;;;;;8.57;3.45;;;0.40;99.90;;;;;;4873214;28;20535;-81
2020/12/26 09:30:43;;;;;;;10.27;3.60;;;0.50;99.90;;;;;;4874614;28;20102;-79
2020/12/26 09:36:54;;;;;;;8.73;2.45;;;0.50;99.90;;;;;;4863843;28;20099;-79
2020/12/26 09:39:54;;;;;;;7.35;3.20;;;0.40;99.90;;;;;;4865692;28;20148;-79
2020/12/26 09:43:12;;;;;;;12.10;3.20;;;0.50;99.90;;;;;;4858416;28;20092;-80
2020/12/26 09:46:36;;;;;;;9.35;3.47;;;0.50;99.90;;;;;;4868259;28;20126;-79
2020/12/26 10:23:59;;;;;;;15.20;6.65;;;0.90;99.90;;;;;;4865793;28;20103;-80
2020/12/26 10:26:50;;;;;;;17.98;7.38;;;0.80;99.90;;;;;;4869722;28;20980;-79
2020/12/26 10:29:43;;;;;;;16.77;7.50;;;0.80;99.90;;;;;;4868981;28;20497;-80
2020/12/26 10:32:35;;;;;;;22.50;6.75;;;0.70;99.90;;;;;;4873910;28;20091;-79
2020/12/26 10:35:30;;;;;;;19.13;7.10;;;0.70;99.90;;;;;;4868201;28;20101;-80
2020/12/26 10:38:20;;;;;;;27.60;7.45;;;0.60;99.90;;;;;;4870918;28;20599;-80
2020/12/26 10:41:21;;;;;;;18.30;7.80;;;0.60;99.90;;;;;;4873940;28;20106;-81
2020/12/26 10:43:44;;;;;;;12.15;6.00;;;0.50;99.90;;;;;;4868184;28;20533;-81
2020/12/26 10:46:08;;;;;;;15.90;6.32;;;0.60;99.90;;;;;;4895793;28;20093;-79
2020/12/26 10:48:31;;;;;;;17.65;6.80;;;;;;;;;;4920878;28;20105;-80
2020/12/26 10:50:54;;;;;;;18.42;7.45;;;0.60;99.90;;;;;;4924566;28;20101;-80
2020/12/26 10:53:17;;;;;;;24.45;7.90;;;0.60;99.90;;;;;;4915932;28;20089;-80
2020/12/26 10:55:40;;;;;;;18.95;8.95;;;0.60;99.90;;;;;;4916989;28;20142;-80
2020/12/26 10:58:04;;;;;;;21.33;7.82;;;0.60;99.90;;;;;;4919425;28;20100;-79
2020/12/26 11:00:28;;;;;;;21.42;6.95;;;0.60;99.90;;;;;;4920451;28;20433;-80
2020/12/26 11:02:51;;;;;;;20.58;7.70;;;0.60;99.90;;;;;;4900639;28;20149;-79
2020/12/26 11:05:14;;;;;;;23.13;7.75;;;2.70;99.90;;;;;;4922042;28;20093;-80
2020/12/26 11:07:37;;;;;;;18.35;7.43;;;0.60;99.90;;;;;;4893486;28;20087;-80
2020/12/26 11:10:00;;;;;;;19.17;8.32;;;0.60;99.90;;;;;;4900249;28;20096;-79
2020/12/26 11:12:23;;;;;;;22.65;8.50;;;0.60;99.90;;;;;;4903884;28;20884;-79
2020/12/26 11:14:47;;;;;;;19.30;7.53;;;;;;;;;;4900818;28;20570;-80
2020/12/26 11:17:10;;;;;;;20.92;7.72;;;0.70;99.90;;;;;;4900991;28;20096;-80
2020/12/26 11:19:34;;;;;;;33.33;8.85;;;0.70;99.90;;;;;;4901437;28;20483;-79
2020/12/26 11:21:58;;;;;;;18.67;7.15;;;0.70;99.90;;;;;;4917560;28;20111;-80
2020/12/26 11:24:23;;;;;;;19.23;6.95;;;0.70;99.90;;;;;;4886212;28;20098;-80
2020/12/26 11:26:46;;;;;;;19.48;7.30;;;0.70;99.90;;;;;;4905305;28;20460;-80
2020/12/26 11:29:09;;;;;;;18.67;8.07;;;0.70;99.90;;;;;;4913101;28;20112;-80
2020/12/26 11:31:33;;;;;;;21.48;8.20;;;0.70;99.90;;;;;;4914289;28;20095;-81
2020/12/26 11:33:56;;;;;;;16.92;7.15;;;0.80;99.90;;;;;;4898857;28;20096;-78
2020/12/26 11:36:21;;;;;;;20.08;8.05;;;0.80;99.90;;;;;;4898733;28;21807;-78
2020/12/26 11:38:44;;;;;;;18.42;6.85;;;0.80;99.90;;;;;;4901990;28;20101;-81
2020/12/26 11:41:07;;;;;;;17.90;6.72;;;0.80;99.90;;;;;;4900391;28;20110;-79
2020/12/26 11:43:31;;;;;;;27.10;7.50;;;0.80;99.90;;;;;;4901909;28;20988;-80
2020/12/26 11:45:53;;;;;;;25.80;7.78;;;0.90;99.90;;;;;;4899358;28;20150;-80
2020/12/26 11:48:18;;;;;;;20.17;8.10;;;;;;;;;;4902603;28;20180;-80
2020/12/26 11:50:41;;;;;;;20.83;7.65;;;0.90;99.90;;;;;;4920163;28;20094;-81
2020/12/26 11:53:04;;;;;;;19.58;7.22;;;0.90;99.90;;;;;;4900919;28;20130;-80
2020/12/26 11:55:27;;;;;;;21.52;8.38;;;0.90;99.90;;;;;;4903996;28;20096;-80
2020/12/26 11:57:50;;;;;;;19.60;7.95;;;0.90;99.90;;;;;;4898588;28;20093;-79
2020/12/26 12:00:13;;;;;;;29.55;9.25;;;0.90;99.90;;;;;;4901025;28;20144;-79
2020/12/26 12:02:36;;;;;;;23.73;9.35;;;0.90;99.90;;;;;;4908703;28;20142;-80
2020/12/26 12:05:00;;;;;;;25.05;9.15;;;1.00;99.90;;;;;;4923232;28;20103;-80
2020/12/26 12:07:23;;;;;;;28.73;9.93;;;0.90;99.90;;;;;;4912961;28;20130;-80
2020/12/26 12:09:47;;;;;;;26.13;9.55;;;1.00;99.90;;;;;;4920113;28;20474;-82
2020/12/26 12:12:10;;;;;;;31.08;10.27;;;1.00;99.90;;;;;;4895495;28;20118;-81
2020/12/26 12:14:33;;;;;;;26.42;9.63;;;1.00;99.90;;;;;;4906449;28;20102;-81
2020/12/26 12:16:57;;;;;;;24.65;9.82;;;1.00;99.90;;;;;;4907159;28;20149;-81
2020/12/26 12:19:20;;;;;;;31.52;10.07;;;1.00;99.90;;;;;;4909557;28;20486;-79
2020/12/26 12:21:46;;;;;;;32.83;10.57;;;1.00;99.90;;;;;;4922322;28;20132;-79
2020/12/26 12:24:09;;;;;;;28.88;11.05;;;1.10;99.90;;;;;;4906516;28;20097;-79
2020/12/26 12:26:32;;;;;;;30.83;10.93;;;1.10;99.90;;;;;;4920751;28;20085;-80
2020/12/26 12:28:56;;;;;;;33.47;11.25;;;1.10;99.90;;;;;;4924923;28;20450;-80
2020/12/26 12:31:19;;;;;;;35.88;9.95;;;1.10;99.90;;;;;;4896672;28;20086;-80
2020/12/26 12:33:42;;;;;;;26.15;10.27;;;1.10;99.90;;;;;;4903970;28;20106;-80
2020/12/26 12:36:06;;;;;;;34.80;11.23;;;1.10;99.90;;;;;;4885380;28;20126;-79
2020/12/26 12:38:30;;;;;;;31.45;11.43;;;1.10;99.90;;;;;;4923093;28;20091;-79
2020/12/26 12:40:53;;;;;;;31.92;10.55;;;1.10;99.90;;;;;;4920183;28;20180;-80
2020/12/26 12:43:16;;;;;;;37.17;12.13;;;1.10;99.90;;;;;;4923865;28;20619;-79
2020/12/26 12:45:40;;;;;;;31.65;11.98;;;1.20;99.90;;;;;;4889523;28;20604;-80
2020/12/26 12:48:03;;;;;;;29.80;11.45;;;1.20;99.90;;;;;;4905266;28;20541;-80
2020/12/26 12:50:27;;;;;;;31.35;12.02;;;1.20;99.90;;;;;;4900080;28;20131;-80
2020/12/26 12:52:50;;;;;;;41.03;12.63;;;1.20;99.90;;;;;;4922924;28;20088;-80
2020/12/26 12:55:13;;;;;;;35.50;12.23;;;1.20;99.90;;;;;;4922311;28;20124;-80
2020/12/26 12:57:38;;;;;;;39.67;12.30;;;1.20;99.90;;;;;;4902508;28;20117;-81
2020/12/26 13:00:03;;;;;;;36.92;11.90;;;1.20;99.90;;;;;;4897651;28;20149;-81
2020/12/26 13:02:25;;;;;;;39.40;12.32;;;1.20;99.90;;;;;;4919084;28;20179;-80
2020/12/26 13:04:50;;;;;;;39.53;12.23;;;1.20;99.90;;;;;;4906307;28;20096;-80
2020/12/26 13:07:14;;;;;;;36.42;11.30;;;1.20;99.90;;;;;;4900678;28;20168;-80
2020/12/26 13:09:39;;;;;;;38.30;13.13;;;1.20;99.90;;;;;;4909940;28;20096;-79
2020/12/26 13:12:03;;;;;;;34.00;12.38;;;1.30;99.90;;;;;;4899569;28;20106;-81
2020/12/26 13:14:27;;;;;;;36.05;12.68;;;1.30;99.90;;;;;;4910363;28;20130;-81
2020/12/26 13:16:50;;;;;;;37.50;12.88;;;1.30;99.90;;;;;;4918157;28;20094;-80
2020/12/26 13:19:13;;;;;;;33.65;11.75;;;1.40;99.90;;;;;;4920728;28;20135;-80
2020/12/26 13:21:36;;;;;;;41.05;12.68;;;1.40;99.90;;;;;;4921770;28;20103;-80
2020/12/26 13:24:00;;;;;;;33.63;11.23;;;1.40;99.90;;;;;;4923380;28;20480;-80
2020/12/26 13:26:24;;;;;;;39.97;13.40;;;1.40;99.90;;;;;;4922794;28;20815;-81